sensor_id;sensor_type;location;lat;lon;timestamp;pressure;altitude;pressure_sealevel;temperature;humidity
69247;BME280;56358;56.328;43.992;2023-03-14T00:01:20;100851.66;;;-4.27;70.63
69247;BME280;56358;56.328;43.992;2023-03-14T00:03:21;100866.44;;;-4.25;70.77
69247;BME280;56358;56.328;43.992;2023-03-14T00:05:22;100847.31;;;-4.30;70.64
69247;BME280;56358;56.328;43.992;2023-03-14T00:07:22;100828.38;;;-4.55;70.86
69247;BME280;56358;56.328;43.992;2023-03-14T00:09:25;100858.59;;;-4.26;70.70
69247;BME280;56358;56.328;43.992;2023-03-14T00:11:26;100851.66;;;-4.27;70.68
69247;BME280;56358;56.328;43.992;2023-03-14T00:13:27;100848.19;;;-4.31;70.63
69247;BME280;56358;56.328;43.992;2023-03-14T00:15:28;100863.00;;;-4.28;70.65
69247;BME280;56358;56.328;43.992;2023-03-14T00:17:29;100862.13;;;-4.29;70.71
69247;BME280;56358;56.328;43.992;2023-03-14T00:19:30;100864.75;;;-4.30;70.73
69247;BME280;56358;56.328;43.992;2023-03-14T00:21:30;100860.41;;;-4.33;70.73
69247;BME280;56358;56.328;43.992;2023-03-14T00:23:32;100851.75;;;-4.40;70.86
69247;BME280;56358;56.328;43.992;2023-03-14T00:25:34;100865.75;;;-4.41;70.93
69247;BME280;56358;56.328;43.992;2023-03-14T00:27:35;100875.31;;;-4.36;70.96
69247;BME280;56358;56.328;43.992;2023-03-14T00:29:36;100800.78;;;-4.89;70.84
69247;BME280;56358;56.328;43.992;2023-03-14T00:31:37;100873.69;;;-4.48;70.90
69247;BME280;56358;56.328;43.992;2023-03-14T00:33:39;100843.31;;;-4.68;70.80
69247;BME280;56358;56.328;43.992;2023-03-14T00:35:40;100881.47;;;-4.41;70.89
69247;BME280;56358;56.328;43.992;2023-03-14T00:37:41;100877.13;;;-4.43;71.02
69247;BME280;56358;56.328;43.992;2023-03-14T00:39:41;100899.78;;;-4.44;71.15
69247;BME280;56358;56.328;43.992;2023-03-14T00:41:42;100882.38;;;-4.48;71.21
69247;BME280;56358;56.328;43.992;2023-03-14T00:43:43;100881.53;;;-4.50;71.16
69247;BME280;56358;56.328;43.992;2023-03-14T00:45:44;100865.88;;;-4.56;71.22
69247;BME280;56358;56.328;43.992;2023-03-14T00:47:45;100819.94;;;-4.86;71.08
69247;BME280;56358;56.328;43.992;2023-03-14T00:49:45;100872.00;;;-4.59;71.17
69247;BME280;56358;56.328;43.992;2023-03-14T00:51:47;100905.09;;;-4.48;71.29
69247;BME280;56358;56.328;43.992;2023-03-14T00:53:47;100898.97;;;-4.49;71.21
69247;BME280;56358;56.328;43.992;2023-03-14T00:55:48;100886.88;;;-4.61;71.07
69247;BME280;56358;56.328;43.992;2023-03-14T00:57:49;100889.41;;;-4.55;70.94
69247;BME280;56358;56.328;43.992;2023-03-14T00:59:50;100890.31;;;-4.57;70.97
69247;BME280;56358;56.328;43.992;2023-03-14T01:01:51;100896.44;;;-4.60;71.28
69247;BME280;56358;56.328;43.992;2023-03-14T01:03:53;100823.59;;;-5.09;71.40
69247;BME280;56358;56.328;43.992;2023-03-14T01:06:09;100899.97;;;-4.65;71.60
69247;BME280;56358;56.328;43.992;2023-03-14T01:08:10;100894.78;;;-4.67;71.64
69247;BME280;56358;56.328;43.992;2023-03-14T01:10:12;100904.38;;;-4.66;71.67
69247;BME280;56358;56.328;43.992;2023-03-14T01:12:13;100910.47;;;-4.67;71.70
69247;BME280;56358;56.328;43.992;2023-03-14T01:14:13;100825.44;;;-5.19;71.56
69247;BME280;56358;56.328;43.992;2023-03-14T01:16:15;100841.09;;;-5.16;71.91
69247;BME280;56358;56.328;43.992;2023-03-14T01:18:15;100909.66;;;-4.78;71.95
69247;BME280;56358;56.328;43.992;2023-03-14T01:20:16;100801.19;;;-5.41;71.91
69247;BME280;56358;56.328;43.992;2023-03-14T01:22:17;100918.41;;;-4.82;71.98
69247;BME280;56358;56.328;43.992;2023-03-14T01:24:18;100902.78;;;-4.92;72.11
69247;BME280;56358;56.328;43.992;2023-03-14T01:26:22;100925.38;;;-4.77;72.01
69247;BME280;56358;56.328;43.992;2023-03-14T01:28:24;100917.59;;;-4.86;72.13
69247;BME280;56358;56.328;43.992;2023-03-14T01:30:25;100927.16;;;-4.85;72.43
69247;BME280;56358;56.328;43.992;2023-03-14T01:32:25;100891.53;;;-5.01;72.22
69247;BME280;56358;56.328;43.992;2023-03-14T01:34:26;100857.75;;;-5.26;72.54
69247;BME280;56358;56.328;43.992;2023-03-14T01:36:27;100936.78;;;-4.92;72.22
69247;BME280;56358;56.328;43.992;2023-03-14T01:38:32;100931.59;;;-4.95;72.66
69247;BME280;56358;56.328;43.992;2023-03-14T01:40:33;100930.72;;;-4.92;72.47
69247;BME280;56358;56.328;43.992;2023-03-14T01:42:34;100940.25;;;-4.86;72.51
69247;BME280;56358;56.328;43.992;2023-03-14T01:44:57;100940.28;;;-4.90;72.55
69247;BME280;56358;56.328;43.992;2023-03-14T01:46:58;100950.72;;;-4.86;72.68
69247;BME280;56358;56.328;43.992;2023-03-14T01:51:31;100843.09;;;-5.53;72.67
69247;BME280;56358;56.328;43.992;2023-03-14T01:53:35;100953.38;;;-4.91;72.68
69247;BME280;56358;56.328;43.992;2023-03-14T01:55:36;100946.44;;;-4.98;72.61
69247;BME280;56358;56.328;43.992;2023-03-14T01:57:40;100939.53;;;-5.07;72.75
69247;BME280;56358;56.328;43.992;2023-03-14T01:59:48;100968.22;;;-4.96;72.90
69247;BME280;56358;56.328;43.992;2023-03-14T02:01:51;100967.34;;;-4.95;72.70
69247;BME280;56358;56.328;43.992;2023-03-14T02:03:55;100951.72;;;-5.06;72.85
69247;BME280;56358;56.328;43.992;2023-03-14T02:06:00;100950.91;;;-5.14;72.87
69247;BME280;56358;56.328;43.992;2023-03-14T02:08:08;100966.47;;;-4.97;73.00
69247;BME280;56358;56.328;43.992;2023-03-14T02:10:10;100956.06;;;-5.03;72.72
69247;BME280;56358;56.328;43.992;2023-03-14T02:12:14;100980.44;;;-5.01;72.83
69247;BME280;56358;56.328;43.992;2023-03-14T02:14:36;100976.09;;;-5.02;73.00
69247;BME280;56358;56.328;43.992;2023-03-14T02:16:37;100973.53;;;-5.09;73.02
69247;BME280;56358;56.328;43.992;2023-03-14T02:18:38;100984.78;;;-4.99;72.98
69247;BME280;56358;56.328;43.992;2023-03-14T02:23:06;100899.66;;;-5.49;72.81
69247;BME280;56358;56.328;43.992;2023-03-14T02:25:21;100988.28;;;-4.97;72.80
69247;BME280;56358;56.328;43.992;2023-03-14T02:27:27;100986.56;;;-4.99;72.89
69247;BME280;56358;56.328;43.992;2023-03-14T02:29:29;100967.44;;;-5.11;72.88
69247;BME280;56358;56.328;43.992;2023-03-14T02:31:31;100992.63;;;-4.97;72.84
69247;BME280;56358;56.328;43.992;2023-03-14T02:33:32;100980.47;;;-5.03;72.76
69247;BME280;56358;56.328;43.992;2023-03-14T02:35:37;100985.66;;;-5.00;72.87
69247;BME280;56358;56.328;43.992;2023-03-14T02:40:10;100916.19;;;-5.44;72.65
69247;BME280;56358;56.328;43.992;2023-03-14T02:42:13;100917.06;;;-5.45;72.80
69247;BME280;56358;56.328;43.992;2023-03-14T02:44:13;101024.91;;;-5.00;72.52
69247;BME280;56358;56.328;43.992;2023-03-14T02:46:17;100980.47;;;-5.09;72.25
69247;BME280;56358;56.328;43.992;2023-03-14T02:48:26;101006.59;;;-5.00;72.57
69247;BME280;56358;56.328;43.992;2023-03-14T02:50:29;100997.00;;;-4.99;72.42
69247;BME280;56358;56.328;43.992;2023-03-14T02:52:31;101003.97;;;-5.01;72.36
69247;BME280;56358;56.328;43.992;2023-03-14T02:54:31;101006.59;;;-5.00;72.29
69247;BME280;56358;56.328;43.992;2023-03-14T02:56:32;100997.91;;;-5.08;72.28
69247;BME280;56358;56.328;43.992;2023-03-14T02:58:33;100968.31;;;-5.15;72.38
69247;BME280;56358;56.328;43.992;2023-03-14T03:00:34;101022.31;;;-5.03;72.39
69247;BME280;56358;56.328;43.992;2023-03-14T03:02:35;101009.22;;;-5.01;72.26
69247;BME280;56358;56.328;43.992;2023-03-14T03:04:36;100998.78;;;-5.03;72.24
69247;BME280;56358;56.328;43.992;2023-03-14T03:06:36;101002.28;;;-5.09;72.14
69247;BME280;56358;56.328;43.992;2023-03-14T03:08:37;101019.66;;;-5.00;72.16
69247;BME280;56358;56.328;43.992;2023-03-14T03:10:38;100994.41;;;-5.01;72.00
69247;BME280;56358;56.328;43.992;2023-03-14T03:12:38;101008.34;;;-4.99;72.01
69247;BME280;56358;56.328;43.992;2023-03-14T03:14:39;101005.75;;;-5.05;72.11
69247;BME280;56358;56.328;43.992;2023-03-14T03:16:40;101002.22;;;-4.98;71.79
69247;BME280;56358;56.328;43.992;2023-03-14T03:18:40;101001.41;;;-5.05;71.77
69247;BME280;56358;56.328;43.992;2023-03-14T03:20:41;101015.28;;;-4.96;71.81
69247;BME280;56358;56.328;43.992;2023-03-14T03:22:41;101019.66;;;-4.95;71.83
69247;BME280;56358;56.328;43.992;2023-03-14T03:24:42;101013.53;;;-4.97;71.96
69247;BME280;56358;56.328;43.992;2023-03-14T03:26:43;101022.28;;;-4.97;71.89
69247;BME280;56358;56.328;43.992;2023-03-14T03:28:43;101004.88;;;-5.01;71.88
69247;BME280;56358;56.328;43.992;2023-03-14T03:30:44;101012.72;;;-4.99;71.71
69247;BME280;56358;56.328;43.992;2023-03-14T03:32:44;100964.91;;;-5.31;71.64
69247;BME280;56358;56.328;43.992;2023-03-14T03:34:45;101012.69;;;-5.02;71.75
69247;BME280;56358;56.328;43.992;2023-03-14T03:36:46;101011.00;;;-5.03;71.84
69247;BME280;56358;56.328;43.992;2023-03-14T03:38:46;101017.94;;;-5.06;71.83
69247;BME280;56358;56.328;43.992;2023-03-14T03:40:47;100926.69;;;-5.53;71.65
69247;BME280;56358;56.328;43.992;2023-03-14T03:42:47;100965.81;;;-5.41;71.59
69247;BME280;56358;56.328;43.992;2023-03-14T03:44:48;101038.88;;;-5.01;71.68
69247;BME280;56358;56.328;43.992;2023-03-14T03:46:50;101026.66;;;-5.07;71.77
69247;BME280;56358;56.328;43.992;2023-03-14T03:48:58;101028.41;;;-4.99;71.84
69247;BME280;56358;56.328;43.992;2023-03-14T03:50:59;101013.59;;;-5.05;71.66
69247;BME280;56358;56.328;43.992;2023-03-14T03:53:00;101001.41;;;-5.09;71.98
69247;BME280;56358;56.328;43.992;2023-03-14T03:55:00;101019.66;;;-4.97;71.92
69247;BME280;56358;56.328;43.992;2023-03-14T03:57:01;101026.63;;;-4.96;71.98
69247;BME280;56358;56.328;43.992;2023-03-14T03:59:01;101015.28;;;-4.90;71.94
69247;BME280;56358;56.328;43.992;2023-03-14T04:01:02;101005.63;;;-4.85;71.87
69247;BME280;56358;56.328;43.992;2023-03-14T04:03:03;101018.72;;;-4.82;71.89
69247;BME280;56358;56.328;43.992;2023-03-14T04:05:04;101002.09;;;-4.76;71.60
69247;BME280;56358;56.328;43.992;2023-03-14T04:07:05;100907.38;;;-5.23;71.48
69247;BME280;56358;56.328;43.992;2023-03-14T04:09:06;100985.50;;;-4.71;71.33
69247;BME280;56358;56.328;43.992;2023-03-14T04:11:07;100986.34;;;-4.68;71.15
69247;BME280;56358;56.328;43.992;2023-03-14T04:13:07;100976.72;;;-4.62;70.95
69247;BME280;56358;56.328;43.992;2023-03-14T04:15:08;100956.66;;;-4.63;70.81
69247;BME280;56358;56.328;43.992;2023-03-14T04:17:09;100981.94;;;-4.62;70.89
69247;BME280;56358;56.328;43.992;2023-03-14T04:19:10;100950.50;;;-4.54;70.59
69247;BME280;56358;56.328;43.992;2023-03-14T04:21:10;100870.59;;;-4.97;70.53
69247;BME280;56358;56.328;43.992;2023-03-14T04:23:11;100958.19;;;-4.37;69.92
69247;BME280;56358;56.328;43.992;2023-03-14T04:25:12;100971.22;;;-4.29;69.81
69247;BME280;56358;56.328;43.992;2023-03-14T04:27:14;100959.78;;;-4.22;69.65
69247;BME280;56358;56.328;43.992;2023-03-14T04:29:15;100968.47;;;-4.12;69.37
69247;BME280;56358;56.328;43.992;2023-03-14T04:31:18;100963.19;;;-4.11;68.73
69247;BME280;56358;56.328;43.992;2023-03-14T04:33:19;100970.00;;;-3.93;68.58
69247;BME280;56358;56.328;43.992;2023-03-14T04:35:20;100914.47;;;-4.26;68.34
69247;BME280;56358;56.328;43.992;2023-03-14T04:37:20;100984.69;;;-3.79;68.22
69247;BME280;56358;56.328;43.992;2023-03-14T04:39:21;100995.16;;;-3.76;67.90
69247;BME280;56358;56.328;43.992;2023-03-14T04:41:21;100999.41;;;-3.63;67.64
69247;BME280;56358;56.328;43.992;2023-03-14T04:43:22;101029.84;;;-3.54;67.22
69247;BME280;56358;56.328;43.992;2023-03-14T04:45:23;101007.97;;;-3.47;67.26
69247;BME280;56358;56.328;43.992;2023-03-14T04:47:23;101014.81;;;-3.37;66.65
69247;BME280;56358;56.328;43.992;2023-03-14T04:49:24;101014.69;;;-3.27;66.23
69247;BME280;56358;56.328;43.992;2023-03-14T04:51:25;101012.88;;;-3.21;66.06
69247;BME280;56358;56.328;43.992;2023-03-14T04:53:27;100873.06;;;-3.93;65.53
69247;BME280;56358;56.328;43.992;2023-03-14T04:55:28;101016.94;;;-2.98;65.80
69247;BME280;56358;56.328;43.992;2023-03-14T04:57:28;100956.91;;;-3.20;65.83
69247;BME280;56358;56.328;43.992;2023-03-14T04:59:29;100996.53;;;-2.77;65.50
69247;BME280;56358;56.328;43.992;2023-03-14T05:01:30;100979.94;;;-2.78;64.57
69247;BME280;56358;56.328;43.992;2023-03-14T05:03:30;100989.44;;;-2.69;63.97
69247;BME280;56358;56.328;43.992;2023-03-14T05:05:31;100984.88;;;-2.58;64.02
69247;BME280;56358;56.328;43.992;2023-03-14T05:07:31;100973.66;;;-2.67;63.56
69247;BME280;56358;56.328;43.992;2023-03-14T05:09:32;100963.97;;;-2.62;63.48
69247;BME280;56358;56.328;43.992;2023-03-14T05:11:33;100987.25;;;-2.41;63.43
69247;BME280;56358;56.328;43.992;2023-03-14T05:13:34;100931.63;;;-2.64;63.27
69247;BME280;56358;56.328;43.992;2023-03-14T05:15:34;100993.91;;;-2.20;62.92
69247;BME280;56358;56.328;43.992;2023-03-14T05:17:35;100985.03;;;-2.12;62.48
69247;BME280;56358;56.328;43.992;2023-03-14T05:19:36;100996.06;;;-1.93;61.83
69247;BME280;56358;56.328;43.992;2023-03-14T05:21:37;100978.19;;;-1.74;61.54
69247;BME280;56358;56.328;43.992;2023-03-14T05:23:37;100976.19;;;-1.60;61.56
69247;BME280;56358;56.328;43.992;2023-03-14T05:25:38;100968.88;;;-1.45;61.62
69247;BME280;56358;56.328;43.992;2023-03-14T05:27:38;100965.88;;;-1.27;61.09
69247;BME280;56358;56.328;43.992;2023-03-14T05:29:39;100955.31;;;-1.25;60.58
69247;BME280;56358;56.328;43.992;2023-03-14T05:31:40;100981.16;;;-1.04;59.36
69247;BME280;56358;56.328;43.992;2023-03-14T05:33:40;100979.38;;;-1.02;58.40
69247;BME280;56358;56.328;43.992;2023-03-14T05:35:42;100983.72;;;-1.01;57.83
69247;BME280;56358;56.328;43.992;2023-03-14T05:37:43;100985.41;;;-0.96;57.83
69247;BME280;56358;56.328;43.992;2023-03-14T05:39:43;100987.94;;;-0.92;57.47
69247;BME280;56358;56.328;43.992;2023-03-14T05:41:44;100985.06;;;-0.81;57.39
69247;BME280;56358;56.328;43.992;2023-03-14T05:43:44;100907.81;;;-1.17;57.41
69247;BME280;56358;56.328;43.992;2023-03-14T05:45:45;100985.56;;;-0.65;57.20
69247;BME280;56358;56.328;43.992;2023-03-14T05:47:46;100986.44;;;-0.64;56.17
69247;BME280;56358;56.328;43.992;2023-03-14T05:49:47;100983.44;;;-0.49;56.91
69247;BME280;56358;56.328;43.992;2023-03-14T05:51:48;100975.63;;;-0.52;56.40
69247;BME280;56358;56.328;43.992;2023-03-14T05:53:49;100956.31;;;-0.53;54.91
69247;BME280;56358;56.328;43.992;2023-03-14T05:55:53;100981.41;;;-0.38;56.13
69247;BME280;56358;56.328;43.992;2023-03-14T05:57:54;100953.03;;;-0.62;55.59
69247;BME280;56358;56.328;43.992;2023-03-14T05:59:55;100890.53;;;-0.92;55.56
69247;BME280;56358;56.328;43.992;2023-03-14T06:01:56;100950.75;;;-0.42;56.05
69247;BME280;56358;56.328;43.992;2023-03-14T06:03:56;100946.25;;;-0.37;55.51
69247;BME280;56358;56.328;43.992;2023-03-14T06:05:57;100941.28;;;-0.49;54.82
69247;BME280;56358;56.328;43.992;2023-03-14T06:07:58;100939.28;;;-0.39;55.64
69247;BME280;56358;56.328;43.992;2023-03-14T06:09:58;100934.09;;;-0.42;54.84
69247;BME280;56358;56.328;43.992;2023-03-14T06:11:59;100925.94;;;-0.31;54.75
69247;BME280;56358;56.328;43.992;2023-03-14T06:13:59;100916.34;;;-0.34;54.32
69247;BME280;56358;56.328;43.992;2023-03-14T06:16:00;100925.38;;;-0.10;54.14
69247;BME280;56358;56.328;43.992;2023-03-14T06:18:01;100902.38;;;-0.05;54.42
69247;BME280;56358;56.328;43.992;2023-03-14T06:20:02;100924.63;;;0.18;53.78
69247;BME280;56358;56.328;43.992;2023-03-14T06:22:03;100898.41;;;0.12;53.62
69247;BME280;56358;56.328;43.992;2023-03-14T06:24:04;100913.69;;;0.32;52.42
69247;BME280;56358;56.328;43.992;2023-03-14T06:26:05;100901.41;;;0.31;51.61
69247;BME280;56358;56.328;43.992;2023-03-14T06:28:05;100904.06;;;0.31;52.00
69247;BME280;56358;56.328;43.992;2023-03-14T06:30:07;100877.53;;;0.36;52.06
69247;BME280;56358;56.328;43.992;2023-03-14T06:32:07;100908.19;;;0.40;51.90
69247;BME280;56358;56.328;43.992;2023-03-14T06:34:09;100874.03;;;0.35;52.24
69247;BME280;56358;56.328;43.992;2023-03-14T06:36:09;100877.69;;;0.31;51.88
69247;BME280;56358;56.328;43.992;2023-03-14T06:38:10;100881.16;;;0.31;52.12
69247;BME280;56358;56.328;43.992;2023-03-14T06:40:11;100868.78;;;0.35;52.54
69247;BME280;56358;56.328;43.992;2023-03-14T06:42:17;100861.75;;;0.34;51.96
69247;BME280;56358;56.328;43.992;2023-03-14T06:44:17;100876.41;;;0.44;52.28
69247;BME280;56358;56.328;43.992;2023-03-14T06:46:18;100860.22;;;0.27;51.68
69247;BME280;56358;56.328;43.992;2023-03-14T06:48:19;100871.84;;;0.49;51.90
69247;BME280;56358;56.328;43.992;2023-03-14T06:50:19;100854.25;;;0.50;51.55
69247;BME280;56358;56.328;43.992;2023-03-14T06:52:22;100866.44;;;0.54;51.14
69247;BME280;56358;56.328;43.992;2023-03-14T06:54:23;100877.56;;;0.64;52.18
69247;BME280;56358;56.328;43.992;2023-03-14T06:56:23;100839.88;;;0.60;50.71
69247;BME280;56358;56.328;43.992;2023-03-14T06:58:24;100789.47;;;0.11;51.91
69247;BME280;56358;56.328;43.992;2023-03-14T07:00:24;100853.03;;;0.62;51.61
69247;BME280;56358;56.328;43.992;2023-03-14T07:02:25;100870.13;;;0.48;51.09
69247;BME280;56358;56.328;43.992;2023-03-14T07:04:26;100854.25;;;0.50;51.57
69247;BME280;56358;56.328;43.992;2023-03-14T07:06:26;100849.59;;;0.58;51.54
69247;BME280;56358;56.328;43.992;2023-03-14T07:08:29;100843.16;;;0.69;51.92
69247;BME280;56358;56.328;43.992;2023-03-14T07:10:30;100826.72;;;0.59;51.33
69247;BME280;56358;56.328;43.992;2023-03-14T07:12:30;100833.19;;;0.48;51.88
69247;BME280;56358;56.328;43.992;2023-03-14T07:14:31;100828.06;;;0.44;52.59
69247;BME280;56358;56.328;43.992;2023-03-14T07:16:31;100763.47;;;-0.01;52.68
69247;BME280;56358;56.328;43.992;2023-03-14T07:18:33;100826.69;;;0.30;53.47
69247;BME280;56358;56.328;43.992;2023-03-14T07:20:34;100834.75;;;0.26;53.87
69247;BME280;56358;56.328;43.992;2023-03-14T07:22:35;100832.19;;;0.23;54.91
69247;BME280;56358;56.328;43.992;2023-03-14T07:24:35;100828.88;;;0.16;55.10
69247;BME280;56358;56.328;43.992;2023-03-14T07:26:36;100812.06;;;-0.11;56.59
69247;BME280;56358;56.328;43.992;2023-03-14T07:28:37;100747.41;;;-0.55;56.78
69247;BME280;56358;56.328;43.992;2023-03-14T07:30:38;100820.84;;;-0.11;58.63
69247;BME280;56358;56.328;43.992;2023-03-14T07:32:38;100830.53;;;-0.11;59.72
69247;BME280;56358;56.328;43.992;2023-03-14T07:34:39;100812.47;;;-0.25;60.19
69247;BME280;56358;56.328;43.992;2023-03-14T07:36:39;100815.75;;;-0.17;61.38
69247;BME280;56358;56.328;43.992;2023-03-14T07:38:40;100814.81;;;-0.14;61.72
69247;BME280;56358;56.328;43.992;2023-03-14T07:40:41;100792.41;;;-0.31;61.71
69247;BME280;56358;56.328;43.992;2023-03-14T07:42:42;100810.25;;;-0.41;63.63
69247;BME280;56358;56.328;43.992;2023-03-14T07:44:43;100795.97;;;-0.32;63.88
69247;BME280;56358;56.328;43.992;2023-03-14T07:46:44;100781.53;;;-0.50;64.50
69247;BME280;56358;56.328;43.992;2023-03-14T07:48:44;100791.25;;;-0.54;64.70
69247;BME280;56358;56.328;43.992;2023-03-14T07:50:48;100698.44;;;-0.93;65.72
69247;BME280;56358;56.328;43.992;2023-03-14T07:52:49;100731.94;;;-0.67;65.95
69247;BME280;56358;56.328;43.992;2023-03-14T07:54:50;100672.13;;;-0.93;66.06
69247;BME280;56358;56.328;43.992;2023-03-14T07:56:51;100751.41;;;-0.73;65.69
69247;BME280;56358;56.328;43.992;2023-03-14T07:58:52;100746.88;;;-0.68;65.83
69247;BME280;56358;56.328;43.992;2023-03-14T08:00:53;100744.38;;;-0.72;65.60
69247;BME280;56358;56.328;43.992;2023-03-14T08:02:53;100672.56;;;-1.10;66.28
69247;BME280;56358;56.328;43.992;2023-03-14T08:04:54;100722.44;;;-0.73;66.23
69247;BME280;56358;56.328;43.992;2023-03-14T08:06:55;100719.59;;;-0.65;65.75
69247;BME280;56358;56.328;43.992;2023-03-14T08:08:55;100717.19;;;-0.73;66.66
69247;BME280;56358;56.328;43.992;2023-03-14T08:10:56;100711.69;;;-0.65;66.94
69247;BME280;56358;56.328;43.992;2023-03-14T08:12:58;100631.25;;;-1.07;66.64
69247;BME280;56358;56.328;43.992;2023-03-14T08:14:59;100700.38;;;-0.69;66.23
69247;BME280;56358;56.328;43.992;2023-03-14T08:16:59;100695.81;;;-0.62;66.14
69247;BME280;56358;56.328;43.992;2023-03-14T08:19:00;100702.75;;;-0.59;66.08
69247;BME280;56358;56.328;43.992;2023-03-14T08:21:01;100670.47;;;-0.66;65.54
69247;BME280;56358;56.328;43.992;2023-03-14T08:23:01;100675.69;;;-0.63;64.73
69247;BME280;56358;56.328;43.992;2023-03-14T08:25:02;100664.09;;;-0.57;64.29
69247;BME280;56358;56.328;43.992;2023-03-14T08:27:04;100654.03;;;-0.44;64.21
69247;BME280;56358;56.328;43.992;2023-03-14T08:29:04;100659.28;;;-0.43;63.37
69247;BME280;56358;56.328;43.992;2023-03-14T08:31:05;100659.94;;;-0.35;63.17
69247;BME280;56358;56.328;43.992;2023-03-14T08:33:06;100648.19;;;-0.24;62.48
69247;BME280;56358;56.328;43.992;2023-03-14T08:35:07;100654.16;;;-0.19;62.08
69247;BME280;56358;56.328;43.992;2023-03-14T08:37:09;100654.09;;;-0.16;61.60
69247;BME280;56358;56.328;43.992;2023-03-14T08:39:09;100645.94;;;-0.08;61.02
69247;BME280;56358;56.328;43.992;2023-03-14T08:41:10;100645.69;;;-0.01;60.03
69247;BME280;56358;56.328;43.992;2023-03-14T08:43:11;100633.97;;;0.10;59.49
69247;BME280;56358;56.328;43.992;2023-03-14T08:45:13;100616.31;;;0.12;59.09
69247;BME280;56358;56.328;43.992;2023-03-14T08:47:14;100630.06;;;0.22;58.69
69247;BME280;56358;56.328;43.992;2023-03-14T08:49:15;100621.88;;;0.31;58.26
69247;BME280;56358;56.328;43.992;2023-03-14T08:51:15;100626.00;;;0.38;57.85
69247;BME280;56358;56.328;43.992;2023-03-14T08:53:17;100609.16;;;0.42;56.96
69247;BME280;56358;56.328;43.992;2023-03-14T08:55:18;100602.81;;;0.48;56.80
69247;BME280;56358;56.328;43.992;2023-03-14T08:57:19;100570.50;;;0.41;56.22
69247;BME280;56358;56.328;43.992;2023-03-14T08:59:22;100572.81;;;0.50;56.31
69247;BME280;56358;56.328;43.992;2023-03-14T09:01:23;100582.75;;;0.69;56.93
69247;BME280;56358;56.328;43.992;2023-03-14T09:03:25;100591.94;;;0.82;55.56
69247;BME280;56358;56.328;43.992;2023-03-14T09:05:26;100576.09;;;0.82;55.22
69247;BME280;56358;56.328;43.992;2023-03-14T09:07:27;100582.34;;;0.80;54.59
69247;BME280;56358;56.328;43.992;2023-03-14T09:09:28;100595.88;;;0.96;55.15
69247;BME280;56358;56.328;43.992;2023-03-14T09:11:30;100571.34;;;0.92;53.85
69247;BME280;56358;56.328;43.992;2023-03-14T09:13:31;100584.06;;;1.06;54.05
69247;BME280;56358;56.328;43.992;2023-03-14T09:15:32;100597.97;;;1.11;53.71
69247;BME280;56358;56.328;43.992;2023-03-14T09:17:32;100592.69;;;1.11;53.95
69247;BME280;56358;56.328;43.992;2023-03-14T09:19:33;100555.88;;;1.07;54.46
69247;BME280;56358;56.328;43.992;2023-03-14T09:21:34;100590.56;;;1.21;53.58
69247;BME280;56358;56.328;43.992;2023-03-14T09:23:34;100599.91;;;1.30;53.30
69247;BME280;56358;56.328;43.992;2023-03-14T09:25:35;100597.94;;;1.35;53.20
69247;BME280;56358;56.328;43.992;2023-03-14T09:27:36;100496.38;;;0.98;53.90
69247;BME280;56358;56.328;43.992;2023-03-14T09:29:36;100585.00;;;1.51;52.74
69247;BME280;56358;56.328;43.992;2023-03-14T09:31:37;100581.25;;;1.57;53.97
69247;BME280;56358;56.328;43.992;2023-03-14T09:33:38;100573.94;;;1.65;53.90
69247;BME280;56358;56.328;43.992;2023-03-14T09:35:39;100575.41;;;1.72;53.34
69247;BME280;56358;56.328;43.992;2023-03-14T09:37:39;100574.34;;;1.76;52.86
69247;BME280;56358;56.328;43.992;2023-03-14T09:39:40;100576.81;;;1.81;53.78
69247;BME280;56358;56.328;43.992;2023-03-14T09:41:46;100579.19;;;1.87;52.79
69247;BME280;56358;56.328;43.992;2023-03-14T09:43:49;100589.53;;;1.93;51.99
69247;BME280;56358;56.328;43.992;2023-03-14T09:45:54;100586.03;;;1.93;52.17
69247;BME280;56358;56.328;43.992;2023-03-14T09:47:57;100599.84;;;1.99;51.97
69247;BME280;56358;56.328;43.992;2023-03-14T09:49:59;100591.63;;;2.07;52.81
69247;BME280;56358;56.328;43.992;2023-03-14T09:52:02;100582.47;;;2.16;51.50
69247;BME280;56358;56.328;43.992;2023-03-14T09:54:16;100556.00;;;2.16;52.41
69247;BME280;56358;56.328;43.992;2023-03-14T09:56:23;100579.66;;;2.41;51.16
69247;BME280;56358;56.328;43.992;2023-03-14T09:58:25;100524.66;;;2.07;49.71
69247;BME280;56358;56.328;43.992;2023-03-14T10:00:28;100555.09;;;2.38;49.91
69247;BME280;56358;56.328;43.992;2023-03-14T10:02:34;100536.72;;;2.34;49.35
69247;BME280;56358;56.328;43.992;2023-03-14T10:04:35;100552.06;;;2.47;50.06
69247;BME280;56358;56.328;43.992;2023-03-14T10:06:39;100550.66;;;2.59;51.05
69247;BME280;56358;56.328;43.992;2023-03-14T10:08:44;100515.72;;;2.50;49.22
69247;BME280;56358;56.328;43.992;2023-03-14T10:10:45;100550.13;;;2.71;49.79
69247;BME280;56358;56.328;43.992;2023-03-14T10:12:48;100537.06;;;2.66;50.04
69247;BME280;56358;56.328;43.992;2023-03-14T10:14:54;100529.72;;;2.73;50.46
69247;BME280;56358;56.328;43.992;2023-03-14T10:17:04;100519.34;;;2.68;49.61
69247;BME280;56358;56.328;43.992;2023-03-14T10:19:14;100451.47;;;2.28;50.23
69247;BME280;56358;56.328;43.992;2023-03-14T10:23:28;100523.00;;;2.66;50.27
69247;BME280;56358;56.328;43.992;2023-03-14T10:25:33;100501.88;;;2.64;50.38
69247;BME280;56358;56.328;43.992;2023-03-14T10:27:35;100525.72;;;2.64;50.21
69247;BME280;56358;56.328;43.992;2023-03-14T10:29:52;100505.53;;;2.62;50.47
69247;BME280;56358;56.328;43.992;2023-03-14T10:31:58;100532.06;;;2.60;50.42
69247;BME280;56358;56.328;43.992;2023-03-14T10:34:02;100522.63;;;2.55;50.03
69247;BME280;56358;56.328;43.992;2023-03-14T10:36:06;100517.84;;;2.63;50.50
69247;BME280;56358;56.328;43.992;2023-03-14T10:38:16;100533.84;;;2.60;50.72
69247;BME280;56358;56.328;43.992;2023-03-14T10:40:18;100532.91;;;2.61;50.44